createdAt,value
2022-11-16T00:00:06.774Z,980.49
2022-11-16T00:01:06.775Z,980.50
2022-11-16T00:02:06.823Z,980.43
2022-11-16T00:03:06.746Z,980.41
2022-11-16T00:04:06.756Z,980.43
2022-11-16T00:05:06.714Z,980.50
2022-11-16T00:06:06.713Z,980.44
2022-11-16T00:07:06.745Z,980.39
2022-11-16T00:08:06.691Z,980.39
2022-11-16T00:09:06.688Z,980.44
2022-11-16T00:10:06.676Z,980.42
2022-11-16T00:11:06.653Z,980.39
2022-11-16T00:12:06.657Z,980.44
2022-11-16T00:13:06.636Z,980.36
2022-11-16T00:14:06.643Z,980.36
2022-11-16T00:15:06.620Z,980.33
2022-11-16T00:16:06.617Z,980.27
2022-11-16T00:17:06.588Z,980.33
2022-11-16T00:18:06.599Z,980.36
2022-11-16T00:19:06.607Z,980.37
2022-11-16T00:20:06.572Z,980.35
2022-11-16T00:21:06.562Z,980.37
2022-11-16T00:22:06.553Z,980.35
2022-11-16T00:23:06.539Z,980.37
2022-11-16T00:24:06.547Z,980.32
2022-11-16T00:25:06.520Z,980.36
2022-11-16T00:26:06.509Z,980.33
2022-11-16T00:27:06.500Z,980.35
2022-11-16T00:28:06.494Z,980.33
2022-11-16T00:29:06.502Z,980.32
2022-11-16T00:30:06.473Z,980.32
2022-11-16T00:31:06.461Z,980.34
2022-11-16T00:32:06.455Z,980.33
2022-11-16T00:33:06.441Z,980.29
2022-11-16T00:34:06.445Z,980.34
2022-11-16T00:35:06.537Z,980.27
2022-11-16T00:36:06.407Z,980.22
2022-11-16T00:37:06.397Z,980.18
2022-11-16T00:38:06.408Z,980.21
2022-11-16T00:39:06.405Z,980.25
2022-11-16T00:40:06.367Z,980.22
2022-11-16T00:41:06.353Z,980.20
2022-11-16T00:42:06.345Z,980.28
2022-11-16T00:43:06.336Z,980.22
2022-11-16T00:44:06.348Z,980.17
2022-11-16T00:45:06.318Z,980.22
2022-11-16T00:46:06.310Z,980.25
2022-11-16T00:47:06.307Z,980.22
2022-11-16T00:48:06.278Z,980.25
2022-11-16T00:49:06.297Z,980.20
2022-11-16T00:50:06.262Z,980.23
2022-11-16T00:51:06.250Z,980.22
2022-11-16T00:52:06.256Z,980.25
2022-11-16T00:53:06.220Z,980.20
2022-11-16T00:54:06.233Z,980.18
2022-11-16T00:55:06.208Z,980.17
2022-11-16T00:56:06.205Z,980.12
2022-11-16T00:57:06.185Z,980.16
2022-11-16T00:58:06.192Z,980.17
2022-11-16T00:59:06.190Z,980.20
2022-11-16T01:00:06.162Z,980.17
2022-11-16T01:01:06.272Z,980.19
2022-11-16T01:02:06.143Z,980.19
2022-11-16T01:03:06.130Z,980.12
2022-11-16T01:04:06.138Z,980.13
2022-11-16T01:05:06.096Z,980.19
2022-11-16T01:06:06.096Z,980.11
2022-11-16T01:07:06.103Z,980.10
2022-11-16T01:08:06.079Z,980.08
2022-11-16T01:09:06.079Z,980.03
2022-11-16T01:10:06.054Z,980.02
2022-11-16T01:11:06.051Z,980.02
2022-11-16T01:12:06.033Z,980.02
2022-11-16T01:13:06.025Z,979.99
2022-11-16T01:14:06.042Z,979.96
2022-11-16T01:15:06.000Z,979.98
2022-11-16T01:16:05.993Z,979.99
2022-11-16T01:17:05.974Z,980.01
2022-11-16T01:18:06.971Z,979.97
2022-11-16T01:19:05.995Z,980.04
2022-11-16T01:20:05.959Z,980.03
2022-11-16T01:21:05.944Z,980.00
2022-11-16T01:22:05.937Z,979.99
2022-11-16T01:23:05.927Z,979.95
2022-11-16T01:24:05.935Z,979.96
2022-11-16T01:25:05.900Z,979.91
2022-11-16T01:26:05.890Z,979.92
2022-11-16T01:27:05.878Z,979.93
2022-11-16T01:28:05.880Z,979.87
2022-11-16T01:29:05.848Z,979.88
2022-11-16T01:30:05.865Z,979.89
2022-11-16T01:31:05.837Z,979.86
2022-11-16T01:32:05.830Z,979.85
2022-11-16T01:33:05.838Z,979.86
2022-11-16T01:34:05.804Z,979.86
2022-11-16T01:35:05.812Z,979.82
2022-11-16T01:36:05.790Z,979.83
2022-11-16T01:37:05.781Z,979.77
2022-11-16T01:38:05.787Z,979.86
2022-11-16T01:39:05.759Z,979.84
2022-11-16T01:40:05.765Z,979.90
2022-11-16T01:41:05.731Z,979.82
2022-11-16T01:42:05.751Z,979.81
2022-11-16T01:43:05.710Z,979.81
2022-11-16T01:44:05.706Z,979.83
2022-11-16T01:45:05.710Z,979.83
2022-11-16T01:46:05.687Z,979.77
2022-11-16T01:47:05.667Z,979.80
2022-11-16T01:48:06.739Z,979.86
2022-11-16T01:49:05.653Z,979.81
2022-11-16T01:50:05.662Z,979.79
2022-11-16T01:51:05.633Z,979.81
2022-11-16T01:52:05.627Z,979.74
2022-11-16T01:53:05.612Z,979.79
2022-11-16T01:54:05.604Z,979.76
2022-11-16T01:55:05.614Z,979.75
2022-11-16T01:56:05.572Z,979.75
2022-11-16T01:57:05.563Z,979.69
2022-11-16T01:58:05.563Z,979.76
2022-11-16T01:59:05.561Z,979.68
2022-11-16T02:00:05.560Z,979.68
2022-11-16T02:01:05.632Z,979.66
2022-11-16T02:02:05.520Z,979.70
2022-11-16T02:03:05.516Z,979.72
2022-11-16T02:04:05.506Z,979.72
2022-11-16T02:05:05.517Z,979.67
2022-11-16T02:06:05.484Z,979.72
2022-11-16T02:07:05.534Z,979.67
2022-11-16T02:08:05.464Z,979.63
2022-11-16T02:09:05.456Z,979.67
2022-11-16T02:10:05.461Z,979.59
2022-11-16T02:11:05.434Z,979.59
2022-11-16T02:12:37.828Z,979.62
2022-11-16T02:13:05.414Z,979.58
2022-11-16T02:14:05.404Z,979.57
2022-11-16T02:15:05.414Z,979.59
2022-11-16T02:16:05.378Z,979.62
2022-11-16T02:17:05.372Z,979.58
2022-11-16T02:18:05.359Z,979.57
2022-11-16T02:19:05.360Z,979.50
2022-11-16T02:20:05.373Z,979.54
2022-11-16T02:21:05.331Z,979.61
2022-11-16T02:22:05.323Z,979.62
2022-11-16T02:23:05.310Z,979.64
2022-11-16T02:24:06.309Z,979.62
2022-11-16T02:25:05.312Z,979.58
2022-11-16T02:26:05.284Z,979.64
2022-11-16T02:27:05.270Z,979.63
2022-11-16T02:28:05.268Z,979.62
2022-11-16T02:29:05.251Z,979.59
2022-11-16T02:30:05.266Z,979.60
2022-11-16T02:31:05.236Z,979.57
2022-11-16T02:32:05.214Z,979.54
2022-11-16T02:33:05.214Z,979.53
2022-11-16T02:34:05.207Z,979.52
2022-11-16T02:35:05.210Z,979.51
2022-11-16T02:36:05.175Z,979.58
2022-11-16T02:37:05.199Z,979.54
2022-11-16T02:38:05.162Z,979.53
2022-11-16T02:39:05.180Z,979.51
2022-11-16T02:40:05.151Z,979.49
2022-11-16T02:41:05.162Z,979.48
2022-11-16T02:42:05.126Z,979.51
2022-11-16T02:43:05.125Z,979.50
2022-11-16T02:44:05.105Z,979.47
2022-11-16T02:45:05.120Z,979.44
2022-11-16T02:46:05.085Z,979.45
2022-11-16T02:47:05.107Z,979.50
2022-11-16T02:48:05.069Z,979.49
2022-11-16T02:49:05.053Z,979.47
2022-11-16T02:50:05.075Z,979.41
2022-11-16T02:51:05.038Z,979.42
2022-11-16T02:52:05.020Z,979.39
2022-11-16T02:53:05.017Z,979.41
2022-11-16T02:54:05.008Z,979.39
2022-11-16T02:55:05.012Z,979.42
2022-11-16T02:56:04.997Z,979.38
2022-11-16T02:57:04.978Z,979.41
2022-11-16T02:58:04.969Z,979.43
2022-11-16T02:59:04.976Z,979.41
2022-11-16T03:00:04.968Z,979.41
2022-11-16T03:01:04.971Z,979.38
2022-11-16T03:02:04.924Z,979.40
2022-11-16T03:03:04.921Z,979.34
2022-11-16T03:04:04.910Z,979.26
2022-11-16T03:05:04.921Z,979.34
2022-11-16T03:06:04.887Z,979.36
2022-11-16T03:07:04.944Z,979.31
2022-11-16T03:08:04.865Z,979.28
2022-11-16T03:09:04.866Z,979.27
2022-11-16T03:10:04.869Z,979.29
2022-11-16T03:11:04.844Z,979.26
2022-11-16T03:12:04.828Z,979.19
2022-11-16T03:13:04.822Z,979.21
2022-11-16T03:14:04.812Z,979.22
2022-11-16T03:15:04.816Z,979.21
2022-11-16T03:16:04.793Z,979.22
2022-11-16T03:17:04.786Z,979.23
2022-11-16T03:18:04.771Z,979.25
2022-11-16T03:19:04.764Z,979.20
2022-11-16T03:20:04.766Z,979.26
2022-11-16T03:21:04.744Z,979.25
2022-11-16T03:22:04.735Z,979.21
2022-11-16T03:23:04.723Z,979.28
2022-11-16T03:24:04.704Z,979.29
2022-11-16T03:25:04.724Z,979.28
2022-11-16T03:26:04.697Z,979.30
2022-11-16T03:27:04.688Z,979.29
2022-11-16T03:28:04.669Z,979.28
2022-11-16T03:29:04.667Z,979.25
2022-11-16T03:30:04.728Z,979.31
2022-11-16T03:31:04.638Z,979.28
2022-11-16T03:32:04.632Z,979.26
2022-11-16T03:33:04.624Z,979.25
2022-11-16T03:34:04.617Z,979.27
2022-11-16T03:35:04.619Z,979.25
2022-11-16T03:36:04.603Z,979.28
2022-11-16T03:37:04.578Z,979.29
2022-11-16T03:38:04.570Z,979.29
2022-11-16T03:39:04.561Z,979.20
2022-11-16T03:40:04.558Z,979.23
2022-11-16T03:41:04.539Z,979.24
2022-11-16T03:42:04.528Z,979.26
2022-11-16T03:43:04.515Z,979.25
2022-11-16T03:44:04.498Z,979.23
2022-11-16T03:45:04.518Z,979.28
2022-11-16T03:46:04.490Z,979.27
2022-11-16T03:47:04.475Z,979.22
2022-11-16T03:48:04.462Z,979.13
2022-11-16T03:49:04.463Z,979.19
2022-11-16T03:50:04.472Z,979.23
2022-11-16T03:51:04.432Z,979.24
2022-11-16T03:52:04.426Z,979.20
2022-11-16T03:53:04.420Z,979.22
2022-11-16T03:54:04.418Z,979.26
2022-11-16T03:55:04.420Z,979.18
2022-11-16T03:56:04.381Z,979.23
2022-11-16T03:57:04.377Z,979.14
2022-11-16T03:58:04.373Z,979.11
2022-11-16T03:59:04.367Z,979.13
2022-11-16T04:00:04.357Z,979.14
2022-11-16T04:01:04.430Z,979.14
2022-11-16T04:02:04.335Z,979.13
2022-11-16T04:03:04.333Z,979.13
2022-11-16T04:04:04.314Z,979.14
2022-11-16T04:05:04.328Z,979.15
2022-11-16T04:06:04.305Z,979.14
2022-11-16T04:07:04.350Z,979.14
2022-11-16T04:08:04.269Z,979.16
2022-11-16T04:09:04.274Z,979.16
2022-11-16T04:10:04.274Z,979.13
2022-11-16T04:11:04.243Z,979.15
2022-11-16T04:12:04.239Z,979.15
2022-11-16T04:13:04.236Z,979.18
2022-11-16T04:14:08.886Z,979.17
2022-11-16T04:15:06.223Z,979.15
2022-11-16T04:16:04.202Z,979.19
2022-11-16T04:17:04.182Z,979.13
2022-11-16T04:18:04.180Z,979.12
2022-11-16T04:19:04.167Z,979.13
2022-11-16T04:20:04.176Z,979.11
2022-11-16T04:21:04.148Z,979.09
2022-11-16T04:22:04.143Z,979.10
2022-11-16T04:23:04.130Z,979.03
2022-11-16T04:24:04.114Z,979.07
2022-11-16T04:25:04.122Z,979.07
2022-11-16T04:26:04.121Z,979.13
2022-11-16T04:27:04.093Z,979.02
2022-11-16T04:28:04.081Z,979.04
2022-11-16T04:29:04.076Z,979.09
2022-11-16T04:30:04.046Z,979.08
2022-11-16T04:31:04.062Z,979.08
2022-11-16T04:32:04.035Z,979.08
2022-11-16T04:33:04.015Z,979.06
2022-11-16T04:34:04.008Z,979.10
2022-11-16T04:35:04.011Z,979.08
2022-11-16T04:36:04.011Z,979.08
2022-11-16T04:37:03.971Z,979.06
2022-11-16T04:38:03.977Z,979.16
2022-11-16T04:39:03.965Z,979.12
2022-11-16T04:40:03.967Z,979.07
2022-11-16T04:41:04.075Z,979.05
2022-11-16T04:42:03.994Z,979.09
2022-11-16T04:43:03.927Z,979.08
2022-11-16T04:44:03.912Z,979.03
2022-11-16T04:45:03.908Z,979.03
2022-11-16T04:46:03.925Z,979.04
2022-11-16T04:47:03.885Z,979.05
2022-11-16T04:48:03.884Z,979.06
2022-11-16T04:49:03.875Z,979.04
2022-11-16T04:50:03.852Z,979.01
2022-11-16T04:51:03.862Z,979.02
2022-11-16T04:52:03.835Z,979.04
2022-11-16T04:53:03.877Z,979.07
2022-11-16T04:54:03.833Z,979.00
2022-11-16T04:55:03.811Z,979.01
2022-11-16T04:56:03.822Z,978.98
2022-11-16T04:57:03.818Z,979.02
2022-11-16T04:58:03.803Z,978.97
2022-11-16T04:59:03.803Z,978.98
2022-11-16T05:00:03.776Z,979.00
2022-11-16T05:01:03.854Z,978.99
2022-11-16T05:02:03.740Z,978.98
2022-11-16T05:03:03.746Z,978.99
2022-11-16T05:04:03.716Z,978.97
2022-11-16T05:05:03.701Z,979.01
2022-11-16T05:06:03.716Z,978.95
2022-11-16T05:07:03.704Z,978.93
2022-11-16T05:08:03.676Z,978.99
2022-11-16T05:09:03.662Z,978.99
2022-11-16T05:10:03.664Z,978.91
2022-11-16T05:11:03.655Z,979.01
2022-11-16T05:12:03.628Z,978.95
2022-11-16T05:13:03.635Z,978.90
2022-11-16T05:14:03.619Z,978.92
2022-11-16T05:15:03.613Z,978.94
2022-11-16T05:16:03.611Z,978.92
2022-11-16T05:17:03.594Z,978.89
2022-11-16T05:18:03.583Z,978.88
2022-11-16T05:19:03.643Z,978.91
2022-11-16T05:20:03.549Z,978.91
2022-11-16T05:21:03.560Z,978.86
2022-11-16T05:22:03.540Z,978.84
2022-11-16T05:23:03.539Z,978.90
2022-11-16T05:24:03.508Z,978.90
2022-11-16T05:25:03.512Z,978.88
2022-11-16T05:26:03.534Z,978.86
2022-11-16T05:27:03.487Z,978.90
2022-11-16T05:28:03.471Z,978.88
2022-11-16T05:29:03.470Z,978.87
2022-11-16T05:30:03.464Z,978.92
2022-11-16T05:31:03.490Z,978.92
2022-11-16T05:32:03.443Z,978.89
2022-11-16T05:33:03.433Z,978.88
2022-11-16T05:34:03.433Z,978.94
2022-11-16T05:35:03.427Z,978.91
2022-11-16T05:36:03.422Z,978.95
2022-11-16T05:37:03.402Z,978.95
2022-11-16T05:38:03.393Z,978.94
2022-11-16T05:39:03.372Z,978.98
2022-11-16T05:40:03.366Z,978.95
2022-11-16T05:41:03.379Z,978.93
2022-11-16T05:42:03.344Z,978.98
2022-11-16T05:43:03.336Z,978.95
2022-11-16T05:44:03.319Z,978.96
2022-11-16T05:45:03.315Z,978.98
2022-11-16T05:46:03.321Z,978.96
2022-11-16T05:47:03.306Z,979.01
2022-11-16T05:48:03.292Z,978.93
2022-11-16T05:49:03.285Z,979.00
2022-11-16T05:50:03.273Z,978.92
2022-11-16T05:51:03.280Z,978.97
2022-11-16T05:52:03.244Z,978.97
2022-11-16T05:53:03.262Z,978.92
2022-11-16T05:54:03.251Z,978.93
2022-11-16T05:55:03.220Z,978.96
2022-11-16T05:56:03.275Z,978.97
2022-11-16T05:57:03.199Z,978.97
2022-11-16T05:58:03.208Z,978.99
2022-11-16T05:59:03.241Z,979.05
2022-11-16T06:00:03.165Z,978.96
2022-11-16T06:01:03.186Z,979.00
2022-11-16T06:02:03.157Z,978.97
2022-11-16T06:03:03.196Z,978.94
2022-11-16T06:04:03.137Z,978.99
2022-11-16T06:05:03.183Z,978.96
2022-11-16T06:06:03.141Z,978.96
2022-11-16T06:07:03.182Z,978.94
2022-11-16T06:08:03.113Z,978.93
2022-11-16T06:09:03.096Z,978.95
2022-11-16T06:10:03.078Z,978.93
2022-11-16T06:11:03.079Z,978.97
2022-11-16T06:12:03.054Z,978.94
2022-11-16T06:13:03.058Z,978.93
2022-11-16T06:14:03.069Z,978.97
2022-11-16T06:15:03.025Z,978.94
2022-11-16T06:16:03.332Z,978.97
2022-11-16T06:17:03.055Z,978.94
2022-11-16T06:18:02.999Z,978.95
2022-11-16T06:19:02.990Z,978.98
2022-11-16T06:20:02.969Z,978.97
2022-11-16T06:21:02.991Z,978.98
2022-11-16T06:22:02.950Z,978.96
2022-11-16T06:23:02.945Z,978.98
2022-11-16T06:24:02.928Z,979.00
2022-11-16T06:25:02.921Z,979.04
2022-11-16T06:26:02.928Z,979.05
2022-11-16T06:27:02.906Z,978.98
2022-11-16T06:28:07.550Z,979.04
2022-11-16T06:29:03.889Z,979.06
2022-11-16T06:30:02.873Z,979.00
2022-11-16T06:31:02.941Z,979.00
2022-11-16T06:32:03.105Z,978.99
2022-11-16T06:33:02.855Z,979.00
2022-11-16T06:34:02.837Z,978.98
2022-11-16T06:35:02.824Z,979.05
2022-11-16T06:36:02.835Z,979.07
2022-11-16T06:37:02.802Z,979.03
2022-11-16T06:38:02.796Z,979.06
2022-11-16T06:39:02.791Z,979.10
2022-11-16T06:40:02.766Z,979.10
2022-11-16T06:41:02.811Z,979.16
2022-11-16T06:42:02.782Z,979.14
2022-11-16T06:43:02.741Z,979.14
2022-11-16T06:44:02.729Z,979.12
2022-11-16T06:45:02.726Z,979.19
2022-11-16T06:46:02.741Z,979.16
2022-11-16T06:47:02.695Z,979.18
2022-11-16T06:48:03.753Z,979.16
2022-11-16T06:49:02.683Z,979.22
2022-11-16T06:50:02.675Z,979.20
2022-11-16T06:51:02.693Z,979.19
2022-11-16T06:52:02.654Z,979.24
2022-11-16T06:53:02.661Z,979.21
2022-11-16T06:54:02.670Z,979.24
2022-11-16T06:55:02.678Z,979.33
2022-11-16T06:56:02.678Z,979.27
2022-11-16T06:57:02.705Z,979.27
2022-11-16T06:58:02.686Z,979.27
2022-11-16T06:59:02.606Z,979.32
2022-11-16T07:00:02.578Z,979.30
2022-11-16T07:01:02.617Z,979.30
2022-11-16T07:02:02.683Z,979.40
2022-11-16T07:03:02.590Z,979.37
2022-11-16T07:04:02.637Z,979.34
2022-11-16T07:05:03.910Z,979.37
2022-11-16T07:06:03.519Z,979.36
2022-11-16T07:07:02.593Z,979.33
2022-11-16T07:08:02.503Z,979.26
2022-11-16T07:09:02.489Z,979.36
2022-11-16T07:10:02.487Z,979.34
2022-11-16T07:11:04.289Z,979.39
2022-11-16T07:12:03.480Z,979.33
2022-11-16T07:13:02.457Z,979.37
2022-11-16T07:14:02.446Z,979.36
2022-11-16T07:15:02.489Z,979.36
2022-11-16T07:16:02.454Z,979.32
2022-11-16T07:17:08.066Z,979.35
2022-11-16T07:18:04.401Z,979.40
2022-11-16T07:19:02.494Z,979.41
2022-11-16T07:20:02.541Z,979.41
2022-11-16T07:21:02.451Z,979.44
2022-11-16T07:22:02.485Z,979.45
2022-11-16T07:23:02.407Z,979.40
2022-11-16T07:24:02.461Z,979.45
2022-11-16T07:25:02.411Z,979.43
2022-11-16T07:26:02.330Z,979.50
2022-11-16T07:27:02.335Z,979.49
2022-11-16T07:28:02.292Z,979.48
2022-11-16T07:29:02.302Z,979.49
2022-11-16T07:30:02.390Z,979.47
2022-11-16T07:31:02.284Z,979.47
2022-11-16T07:32:02.290Z,979.48
2022-11-16T07:33:02.258Z,979.53
2022-11-16T07:34:02.258Z,979.44
2022-11-16T07:35:02.246Z,979.52
2022-11-16T07:36:02.227Z,979.47
2022-11-16T07:37:02.242Z,979.56
2022-11-16T07:38:02.207Z,979.49
2022-11-16T07:39:02.197Z,979.54
2022-11-16T07:40:02.195Z,979.55
2022-11-16T07:41:02.178Z,979.50
2022-11-16T07:42:02.187Z,979.52
2022-11-16T07:43:02.159Z,979.56
2022-11-16T07:44:02.132Z,979.57
2022-11-16T07:45:02.223Z,979.58
2022-11-16T07:46:30.279Z,979.63
2022-11-16T07:47:04.136Z,979.59
2022-11-16T07:48:02.107Z,979.64
2022-11-16T07:49:03.997Z,979.61
2022-11-16T07:50:02.093Z,979.61
2022-11-16T07:51:02.075Z,979.62
2022-11-16T07:52:02.316Z,979.61
2022-11-16T07:53:02.053Z,979.63
2022-11-16T07:54:02.043Z,979.62
2022-11-16T07:55:02.040Z,979.61
2022-11-16T07:56:02.037Z,979.62
2022-11-16T07:57:02.046Z,979.61
2022-11-16T07:58:02.007Z,979.66
2022-11-16T07:59:01.998Z,979.65
2022-11-16T08:00:01.981Z,979.63
2022-11-16T08:01:01.981Z,979.68
2022-11-16T08:02:02.092Z,979.69
2022-11-16T08:03:02.008Z,979.69
2022-11-16T08:04:02.013Z,979.66
2022-11-16T08:05:02.000Z,979.66
2022-11-16T08:06:02.013Z,979.67
2022-11-16T08:07:02.057Z,979.69
2022-11-16T08:08:01.991Z,979.65
2022-11-16T08:09:01.890Z,979.68
2022-11-16T08:10:01.946Z,979.70
2022-11-16T08:11:01.873Z,979.64
2022-11-16T08:12:05.117Z,979.64
2022-11-16T08:13:33.749Z,979.67
2022-11-16T08:14:01.929Z,979.66
2022-11-16T08:15:01.943Z,979.62
2022-11-16T08:16:01.935Z,979.63
2022-11-16T08:17:01.912Z,979.62
2022-11-16T08:18:01.812Z,979.66
2022-11-16T08:19:01.819Z,979.68
2022-11-16T08:20:01.818Z,979.65
2022-11-16T08:21:01.792Z,979.61
2022-11-16T08:22:01.782Z,979.66
2022-11-16T08:23:01.755Z,979.65
2022-11-16T08:24:01.744Z,979.64
2022-11-16T08:25:01.731Z,979.66
2022-11-16T08:26:02.721Z,979.70
2022-11-16T08:27:01.760Z,979.65
2022-11-16T08:28:01.707Z,979.60
2022-11-16T08:29:01.698Z,979.65
2022-11-16T08:30:01.683Z,979.65
2022-11-16T08:31:01.676Z,979.69
2022-11-16T08:32:01.671Z,979.68
2022-11-16T08:33:01.651Z,979.73
2022-11-16T08:34:01.645Z,979.79
2022-11-16T08:35:01.643Z,979.71
2022-11-16T08:36:01.634Z,979.80
2022-11-16T08:37:01.639Z,979.76
2022-11-16T08:38:01.610Z,979.77
2022-11-16T08:39:01.595Z,979.78
2022-11-16T08:40:01.669Z,979.85
2022-11-16T08:41:01.589Z,979.81
2022-11-16T08:42:01.588Z,979.83
2022-11-16T08:43:01.565Z,979.71
2022-11-16T08:44:01.557Z,979.78
2022-11-16T08:45:01.558Z,979.68
2022-11-16T08:46:01.526Z,979.74
2022-11-16T08:47:01.551Z,979.73
2022-11-16T08:48:04.085Z,979.74
2022-11-16T08:49:02.496Z,979.80
2022-11-16T08:50:01.489Z,979.74
2022-11-16T08:51:17.020Z,979.78
2022-11-16T08:52:03.475Z,979.76
2022-11-16T08:53:01.459Z,979.79
2022-11-16T08:54:01.470Z,979.80
2022-11-16T08:55:01.442Z,979.80
2022-11-16T08:56:01.504Z,979.81
2022-11-16T08:57:01.451Z,979.81
2022-11-16T08:58:01.426Z,979.85
2022-11-16T08:59:01.402Z,979.88
2022-11-16T09:00:01.379Z,979.89
2022-11-16T09:01:01.376Z,979.88
2022-11-16T09:02:01.522Z,979.92
2022-11-16T09:03:01.362Z,979.90
2022-11-16T09:04:01.344Z,979.99
2022-11-16T09:05:01.341Z,979.93
2022-11-16T09:06:01.328Z,979.88
2022-11-16T09:07:01.412Z,979.96
2022-11-16T09:08:01.311Z,979.85
2022-11-16T09:09:01.299Z,979.82
2022-11-16T09:10:01.293Z,979.86
2022-11-16T09:11:01.281Z,979.85
2022-11-16T09:12:01.369Z,979.87
2022-11-16T09:13:01.269Z,979.87
2022-11-16T09:14:01.253Z,979.84
2022-11-16T09:15:01.271Z,979.87
2022-11-16T09:16:01.240Z,979.88
2022-11-16T09:17:01.250Z,979.79
2022-11-16T09:18:01.217Z,979.82
2022-11-16T09:19:01.228Z,979.83
2022-11-16T09:20:01.196Z,979.79
2022-11-16T09:21:01.189Z,979.79
2022-11-16T09:22:01.190Z,979.83
2022-11-16T09:23:01.161Z,979.85
2022-11-16T09:24:01.145Z,979.82
2022-11-16T09:25:01.137Z,979.86
2022-11-16T09:26:01.135Z,979.83
2022-11-16T09:27:01.143Z,979.89
2022-11-16T09:28:01.201Z,979.91
2022-11-16T09:29:01.111Z,979.87
2022-11-16T09:30:01.102Z,979.81
2022-11-16T09:31:01.076Z,979.86
2022-11-16T09:32:01.081Z,979.91
2022-11-16T09:33:01.055Z,979.93
2022-11-16T09:34:01.066Z,979.89
2022-11-16T09:35:01.036Z,979.91
2022-11-16T09:36:01.028Z,979.82
2022-11-16T09:37:01.032Z,979.82
2022-11-16T09:38:01.013Z,979.79
2022-11-16T09:39:28.791Z,979.79
2022-11-16T09:40:02.978Z,979.81
2022-11-16T09:41:00.976Z,979.80
2022-11-16T09:42:00.978Z,979.81
2022-11-16T09:43:00.952Z,979.90
2022-11-16T09:44:01.023Z,979.88
2022-11-16T09:45:00.939Z,979.82
2022-11-16T09:46:00.924Z,979.91
2022-11-16T09:47:00.936Z,979.90
2022-11-16T09:48:00.893Z,979.87
2022-11-16T09:49:00.883Z,979.93
2022-11-16T09:50:04.106Z,979.93
2022-11-16T09:51:01.913Z,979.90
2022-11-16T09:52:00.879Z,979.95
2022-11-16T09:53:00.842Z,979.96
2022-11-16T09:54:00.838Z,979.91
2022-11-16T09:55:00.826Z,979.94
2022-11-16T09:56:00.820Z,979.93
2022-11-16T09:57:00.823Z,979.92
2022-11-16T09:58:00.788Z,979.97
2022-11-16T09:59:00.776Z,979.93
2022-11-16T10:00:01.850Z,979.97
2022-11-16T10:01:00.804Z,979.93
2022-11-16T10:02:00.780Z,979.95
2022-11-16T10:03:00.745Z,979.94
2022-11-16T10:04:00.723Z,979.92
2022-11-16T10:05:00.724Z,979.89
2022-11-16T10:06:00.715Z,979.92
2022-11-16T10:07:00.756Z,979.92
2022-11-16T10:08:00.720Z,979.98
2022-11-16T10:09:00.676Z,979.89
2022-11-16T10:10:00.669Z,979.92
2022-11-16T10:11:00.662Z,979.88
2022-11-16T10:12:00.676Z,979.96
2022-11-16T10:13:00.644Z,979.89
2022-11-16T10:14:04.176Z,979.89
2022-11-16T10:15:01.656Z,979.89
2022-11-16T10:16:00.690Z,979.90
2022-11-16T10:17:00.621Z,979.97
2022-11-16T10:18:00.590Z,979.93
2022-11-16T10:19:00.575Z,979.98
2022-11-16T10:20:00.601Z,980.02
2022-11-16T10:21:00.555Z,980.00
2022-11-16T10:22:00.563Z,980.05
2022-11-16T10:23:00.533Z,980.01
2022-11-16T10:24:00.525Z,979.99
2022-11-16T10:25:00.587Z,979.97
2022-11-16T10:26:00.500Z,979.94
2022-11-16T10:27:00.509Z,979.88
2022-11-16T10:28:00.481Z,979.92
2022-11-16T10:29:00.473Z,979.87
2022-11-16T10:30:00.466Z,979.89
2022-11-16T10:31:00.457Z,979.92
2022-11-16T10:32:00.473Z,979.88
2022-11-16T10:33:00.442Z,979.89
2022-11-16T10:34:00.426Z,979.86
2022-11-16T10:35:00.420Z,979.93
2022-11-16T10:36:00.401Z,979.94
2022-11-16T10:37:00.418Z,979.90
2022-11-16T10:38:00.397Z,979.90
2022-11-16T10:39:00.541Z,979.91
2022-11-16T10:40:00.448Z,979.92
2022-11-16T10:41:00.401Z,979.94
2022-11-16T10:42:06.115Z,979.83
2022-11-16T10:43:02.331Z,979.91
2022-11-16T10:44:00.328Z,979.86
2022-11-16T10:45:00.318Z,979.81
2022-11-16T10:46:00.304Z,979.83
2022-11-16T10:47:00.296Z,979.85
2022-11-16T10:48:00.380Z,979.81
2022-11-16T10:49:00.275Z,979.83
2022-11-16T10:50:00.269Z,979.80
2022-11-16T10:51:00.254Z,979.74
2022-11-16T10:52:00.256Z,979.72
2022-11-16T10:53:00.234Z,979.73
2022-11-16T10:54:00.225Z,979.76
2022-11-16T10:55:00.244Z,979.77
2022-11-16T10:56:00.196Z,979.76
2022-11-16T10:57:00.194Z,979.72
2022-11-16T10:58:00.208Z,979.76
2022-11-16T10:59:00.175Z,979.70
2022-11-16T11:00:00.157Z,979.70
2022-11-16T11:01:00.189Z,979.75
2022-11-16T11:02:00.167Z,979.73
2022-11-16T11:03:00.159Z,979.76
2022-11-16T11:04:00.217Z,979.73
2022-11-16T11:05:00.123Z,979.77
2022-11-16T11:06:00.109Z,979.75
2022-11-16T11:07:00.187Z,979.75
2022-11-16T11:08:00.117Z,979.77
2022-11-16T11:09:00.122Z,979.78
2022-11-16T11:10:00.082Z,979.78
2022-11-16T11:11:00.066Z,979.74
2022-11-16T11:12:00.039Z,979.78
2022-11-16T11:13:00.058Z,979.76
2022-11-16T11:14:00.034Z,979.80
2022-11-16T11:15:00.004Z,979.73
2022-11-16T11:16:00.002Z,979.71
2022-11-16T11:16:59.997Z,979.75
2022-11-16T11:18:00.006Z,979.70
2022-11-16T11:18:59.977Z,979.64
2022-11-16T11:19:59.977Z,979.65
2022-11-16T11:20:59.957Z,979.60
2022-11-16T11:21:59.944Z,979.63
2022-11-16T11:22:59.954Z,979.68
2022-11-16T11:24:29.374Z,979.63
2022-11-16T11:25:01.914Z,979.62
2022-11-16T11:25:59.890Z,979.70
2022-11-16T11:27:00.891Z,979.69
2022-11-16T11:27:59.893Z,979.71
2022-11-16T11:28:59.891Z,979.71
2022-11-16T11:29:59.863Z,979.69
2022-11-16T11:30:59.860Z,979.76
2022-11-16T11:31:59.842Z,979.73
2022-11-16T11:32:59.848Z,979.63
2022-11-16T11:33:59.820Z,979.65
2022-11-16T11:34:59.813Z,979.69
2022-11-16T11:35:59.877Z,979.65
2022-11-16T11:36:59.798Z,979.69
2022-11-16T11:38:04.776Z,979.61
2022-11-16T11:39:01.798Z,979.63
2022-11-16T11:40:00.760Z,979.58
2022-11-16T11:40:59.760Z,979.63
2022-11-16T11:41:59.738Z,979.58
2022-11-16T11:42:59.740Z,979.58
2022-11-16T11:43:59.716Z,979.59
2022-11-16T11:44:59.716Z,979.50
2022-11-16T11:45:59.700Z,979.51
2022-11-16T11:47:50.558Z,979.53
2022-11-16T11:48:01.698Z,979.54
2022-11-16T11:48:59.686Z,979.56
2022-11-16T11:49:59.666Z,979.57
2022-11-16T11:50:59.657Z,979.48
2022-11-16T11:51:59.724Z,979.47
2022-11-16T11:52:59.743Z,979.48
2022-11-16T11:53:59.623Z,979.51
2022-11-16T11:54:59.610Z,979.42
2022-11-16T11:55:59.604Z,979.42
2022-11-16T11:56:59.592Z,979.43
2022-11-16T11:57:59.607Z,979.40
2022-11-16T11:58:59.578Z,979.50
2022-11-16T11:59:59.566Z,979.40
2022-11-16T12:00:59.554Z,979.45
2022-11-16T12:01:59.545Z,979.47
2022-11-16T12:02:59.588Z,979.41
2022-11-16T12:03:59.521Z,979.36
2022-11-16T12:04:59.513Z,979.41
2022-11-16T12:05:59.508Z,979.36
2022-11-16T12:06:59.535Z,979.37
2022-11-16T12:07:59.588Z,979.37
2022-11-16T12:08:59.477Z,979.42
2022-11-16T12:10:14.432Z,979.43
2022-11-16T12:10:59.463Z,979.39
2022-11-16T12:11:59.440Z,979.43
2022-11-16T12:12:59.450Z,979.36
2022-11-16T12:13:59.420Z,979.40
2022-11-16T12:14:59.401Z,979.36
2022-11-16T12:15:59.398Z,979.34
2022-11-16T12:16:59.396Z,979.30
2022-11-16T12:17:59.395Z,979.36
2022-11-16T12:18:59.364Z,979.32
2022-11-16T12:19:59.373Z,979.36
2022-11-16T12:20:59.353Z,979.34
2022-11-16T12:21:59.344Z,979.35
2022-11-16T12:23:03.756Z,979.32
2022-11-16T12:23:59.406Z,979.35
2022-11-16T12:24:59.307Z,979.33
2022-11-16T12:25:59.305Z,979.27
2022-11-16T12:26:59.293Z,979.32
2022-11-16T12:27:59.350Z,979.38